createdAt,value
2018-03-15T00:01:34.249Z,21.20
2018-03-15T00:04:02.367Z,25.00
2018-03-15T00:06:30.492Z,20.73
2018-03-15T00:08:58.538Z,20.30
2018-03-15T00:11:26.636Z,22.87
2018-03-15T00:13:54.843Z,25.92
2018-03-15T00:16:23.839Z,24.60
2018-03-15T00:18:52.174Z,34.33
2018-03-15T00:21:20.389Z,21.85
2018-03-15T00:23:49.479Z,24.05
2018-03-15T00:26:17.752Z,26.90
2018-03-15T00:28:45.903Z,24.85
2018-03-15T00:31:19.879Z,24.90
2018-03-15T00:33:48.346Z,30.00
2018-03-15T00:36:16.549Z,28.77
2018-03-15T00:38:44.526Z,20.80
2018-03-15T00:41:12.650Z,22.00
2018-03-15T00:43:40.592Z,27.02
2018-03-15T00:46:08.957Z,25.80
2018-03-15T00:48:37.207Z,23.92
2018-03-15T00:51:05.124Z,28.12
2018-03-15T00:53:32.994Z,26.45
2018-03-15T00:56:01.020Z,25.73
2018-03-15T00:58:29.950Z,29.40
2018-03-15T01:00:57.883Z,26.73
2018-03-15T01:03:26.029Z,26.45
2018-03-15T01:05:54.062Z,26.60
2018-03-15T01:08:22.061Z,29.63
2018-03-15T01:10:50.002Z,27.55
2018-03-15T01:13:17.893Z,25.65
2018-03-15T01:15:46.314Z,29.05
2018-03-15T01:18:14.316Z,24.83
2018-03-15T01:20:42.312Z,26.90
2018-03-15T01:23:10.408Z,25.05
2018-03-15T01:25:38.364Z,27.87
2018-03-15T01:28:07.064Z,29.40
2018-03-15T01:30:35.030Z,28.77
2018-03-15T01:33:02.987Z,25.02
2018-03-15T01:35:31.221Z,23.30
2018-03-15T01:38:00.216Z,27.35
2018-03-15T01:40:28.267Z,23.15
2018-03-15T01:42:56.367Z,35.28
2018-03-15T01:45:24.536Z,26.65
2018-03-15T01:47:52.709Z,20.37
2018-03-15T01:50:22.461Z,29.65
2018-03-15T01:52:50.510Z,26.40
2018-03-15T01:55:18.585Z,24.12
2018-03-15T01:57:46.861Z,28.65
2018-03-15T02:00:15.041Z,28.12
2018-03-15T02:02:43.104Z,23.38
2018-03-15T02:05:11.120Z,22.25
2018-03-15T02:07:39.186Z,22.37
2018-03-15T02:10:07.241Z,20.95
2018-03-15T02:12:37.558Z,24.37
2018-03-15T02:15:08.573Z,20.62
2018-03-15T02:17:41.221Z,23.48
2018-03-15T02:20:11.588Z,24.75
2018-03-15T02:22:42.494Z,22.27
2018-03-15T02:25:13.124Z,23.55
2018-03-15T02:27:44.419Z,28.98
2018-03-15T02:30:16.530Z,24.27
2018-03-15T02:32:47.729Z,24.70
2018-03-15T02:35:19.905Z,24.40
2018-03-15T02:37:50.473Z,37.72
2018-03-15T02:40:23.759Z,21.98
2018-03-15T02:42:54.240Z,23.77
2018-03-15T02:45:25.897Z,24.50
2018-03-15T02:47:55.852Z,29.23
2018-03-15T02:50:23.872Z,25.27
2018-03-15T02:52:52.173Z,29.92
2018-03-15T02:55:20.097Z,28.60
2018-03-15T02:57:49.125Z,31.73
2018-03-15T03:00:18.311Z,27.05
2018-03-15T03:02:46.349Z,32.10
2018-03-15T03:05:15.274Z,35.85
2018-03-15T03:07:43.260Z,27.33
2018-03-15T03:10:11.555Z,33.95
2018-03-15T03:12:39.505Z,27.13
2018-03-15T03:15:07.489Z,33.58
2018-03-15T03:17:35.362Z,24.52
2018-03-15T03:20:03.982Z,35.47
2018-03-15T03:22:32.296Z,37.15
2018-03-15T03:25:00.328Z,30.83
2018-03-15T03:27:28.410Z,31.95
2018-03-15T03:29:56.818Z,25.45
2018-03-15T03:32:25.343Z,30.88
2018-03-15T03:34:53.354Z,35.33
2018-03-15T03:37:21.450Z,30.27
2018-03-15T03:39:49.684Z,36.78
2018-03-15T03:42:17.758Z,30.83
2018-03-15T03:44:45.550Z,26.60
2018-03-15T03:47:13.402Z,41.40
2018-03-15T03:49:41.253Z,29.83
2018-03-15T03:52:09.444Z,30.17
2018-03-15T03:54:38.045Z,34.75
2018-03-15T03:57:06.302Z,38.55
2018-03-15T03:59:34.243Z,39.35
2018-03-15T04:02:02.207Z,36.35
2018-03-15T04:04:31.109Z,38.10
2018-03-15T04:06:59.028Z,32.88
2018-03-15T04:09:27.312Z,35.80
2018-03-15T04:11:55.620Z,43.00
2018-03-15T04:14:24.426Z,39.80
2018-03-15T04:16:52.829Z,35.78
2018-03-15T04:19:20.967Z,36.97
2018-03-15T04:21:50.045Z,38.25
2018-03-15T04:24:18.241Z,37.10
2018-03-15T04:26:46.538Z,41.88
2018-03-15T04:29:15.141Z,38.97
2018-03-15T04:31:43.181Z,43.80
2018-03-15T04:34:12.189Z,38.45
2018-03-15T04:36:39.878Z,45.25
2018-03-15T04:39:08.033Z,48.35
2018-03-15T04:41:36.793Z,44.95
2018-03-15T04:44:05.290Z,42.88
2018-03-15T04:46:33.503Z,45.45
2018-03-15T04:49:01.347Z,49.55
2018-03-15T04:51:29.289Z,40.97
2018-03-15T04:53:57.383Z,49.70
2018-03-15T04:56:25.322Z,40.97
2018-03-15T04:58:54.315Z,41.85
2018-03-15T05:01:23.069Z,43.40
2018-03-15T05:03:51.192Z,49.88
2018-03-15T05:06:19.432Z,42.13
2018-03-15T05:08:47.549Z,47.05
2018-03-15T05:11:16.157Z,45.08
2018-03-15T05:13:44.112Z,42.42
2018-03-15T05:16:12.360Z,44.05
2018-03-15T05:18:40.517Z,47.40
2018-03-15T05:21:08.483Z,49.42
2018-03-15T05:23:36.868Z,47.25
2018-03-15T05:26:05.533Z,45.22
2018-03-15T05:28:33.728Z,45.08
2018-03-15T05:31:02.256Z,49.38
2018-03-15T05:33:30.488Z,42.03
2018-03-15T05:35:58.855Z,50.00
2018-03-15T05:38:27.185Z,55.12
2018-03-15T05:40:55.976Z,46.75
2018-03-15T05:43:24.529Z,43.53
2018-03-15T05:45:52.930Z,48.87
2018-03-15T05:48:21.676Z,50.63
2018-03-15T05:50:50.049Z,47.85
2018-03-15T05:53:26.535Z,44.88
2018-03-15T05:55:55.232Z,45.63
2018-03-15T05:58:22.974Z,46.90
2018-03-15T06:00:50.981Z,50.12
2018-03-15T06:03:18.748Z,54.28
2018-03-15T06:05:46.923Z,50.15
2018-03-15T06:08:25.805Z,47.03
2018-03-15T06:10:53.836Z,52.58
2018-03-15T06:13:22.295Z,53.13
2018-03-15T06:15:50.293Z,57.45
2018-03-15T06:18:18.057Z,55.85
2018-03-15T06:20:45.833Z,52.45
2018-03-15T06:23:13.789Z,52.90
2018-03-15T06:25:42.654Z,59.47
2018-03-15T06:28:10.597Z,57.38
2018-03-15T06:30:40.991Z,55.78
2018-03-15T06:33:12.233Z,56.45
2018-03-15T06:35:40.525Z,51.25
2018-03-15T06:38:09.106Z,60.92
2018-03-15T06:40:37.147Z,62.65
2018-03-15T06:43:06.165Z,59.00
2018-03-15T06:45:34.430Z,61.47
2018-03-15T06:48:06.737Z,63.47
2018-03-15T06:50:34.604Z,55.35
2018-03-15T06:53:02.464Z,69.37
2018-03-15T06:55:30.387Z,58.85
2018-03-15T06:58:00.560Z,61.10
2018-03-15T07:00:28.695Z,70.22
2018-03-15T07:02:57.256Z,49.15
2018-03-15T07:05:27.936Z,55.72
2018-03-15T07:07:57.268Z,56.78
2018-03-15T07:10:25.810Z,52.47
2018-03-15T07:12:54.281Z,62.67
2018-03-15T07:15:22.326Z,59.17
2018-03-15T07:17:52.053Z,61.78
2018-03-15T07:20:20.126Z,57.17
2018-03-15T07:22:48.743Z,63.55
2018-03-15T07:25:16.680Z,61.55
2018-03-15T07:27:44.986Z,62.47
2018-03-15T07:30:17.635Z,60.42
2018-03-15T07:32:46.028Z,57.72
2018-03-15T07:35:13.882Z,64.72
2018-03-15T07:37:41.623Z,62.38
2018-03-15T07:40:09.462Z,75.35
2018-03-15T07:42:37.794Z,65.87
2018-03-15T07:45:05.946Z,61.70
2018-03-15T07:47:33.883Z,55.53
2018-03-15T07:50:06.509Z,67.62
2018-03-15T07:52:35.179Z,54.95
2018-03-15T07:55:03.085Z,54.13
2018-03-15T07:57:30.719Z,65.50
2018-03-15T07:59:59.379Z,63.87
2018-03-15T08:02:27.454Z,65.18
2018-03-15T08:04:56.196Z,63.75
2018-03-15T08:07:24.254Z,64.18
2018-03-15T08:09:51.937Z,81.35
2018-03-15T08:12:20.214Z,66.47
2018-03-15T08:14:48.287Z,55.97
2018-03-15T08:17:16.004Z,65.18
2018-03-15T08:19:44.550Z,63.55
2018-03-15T08:22:12.183Z,66.22
2018-03-15T08:24:39.751Z,67.30
2018-03-15T08:27:07.314Z,78.05
2018-03-15T08:29:34.939Z,76.03
2018-03-15T08:32:03.363Z,82.37
2018-03-15T08:34:31.023Z,63.90
2018-03-15T08:36:58.635Z,68.22
2018-03-15T08:39:26.272Z,63.03
2018-03-15T08:41:53.906Z,57.13
2018-03-15T08:44:21.588Z,57.35
2018-03-15T08:46:49.224Z,45.90
2018-03-15T08:49:16.837Z,42.90
2018-03-15T08:51:44.598Z,37.20
2018-03-15T08:54:12.204Z,36.17
2018-03-15T08:56:39.807Z,28.40
2018-03-15T08:59:07.439Z,23.80
2018-03-15T09:01:35.044Z,25.88
2018-03-15T09:04:02.698Z,21.12
2018-03-15T09:06:30.327Z,20.12
2018-03-15T09:08:57.966Z,20.67
2018-03-15T09:11:26.339Z,17.35
2018-03-15T09:13:54.745Z,17.70
2018-03-15T09:16:22.370Z,22.83
2018-03-15T09:18:49.953Z,21.55
2018-03-15T09:21:18.354Z,19.70
2018-03-15T09:23:45.996Z,21.48
2018-03-15T09:26:13.612Z,19.30
2018-03-15T09:28:49.837Z,20.95
2018-03-15T09:31:18.068Z,22.00
2018-03-15T09:33:46.560Z,16.15
2018-03-15T09:36:14.353Z,21.92
2018-03-15T09:38:42.016Z,19.73
2018-03-15T09:41:09.706Z,17.25
2018-03-15T09:43:37.567Z,14.43
2018-03-15T09:46:05.373Z,15.73
2018-03-15T09:48:35.984Z,15.77
2018-03-15T09:51:05.724Z,16.60
2018-03-15T09:53:34.898Z,16.48
2018-03-15T09:56:03.722Z,11.70
2018-03-15T09:58:33.755Z,18.25
2018-03-15T10:01:03.213Z,12.75
2018-03-15T10:03:32.176Z,18.52
2018-03-15T10:06:00.905Z,14.65
2018-03-15T10:08:31.313Z,18.12
2018-03-15T10:11:00.696Z,19.33
2018-03-15T10:13:29.128Z,23.75
2018-03-15T10:15:59.205Z,14.52
2018-03-15T10:18:27.908Z,13.00
2018-03-15T10:20:57.456Z,18.77
2018-03-15T10:23:25.620Z,16.80
2018-03-15T10:25:55.322Z,17.37
2018-03-15T10:28:25.374Z,16.70
2018-03-15T10:30:53.727Z,24.45
2018-03-15T10:33:28.475Z,19.58
2018-03-15T10:35:58.767Z,18.60
2018-03-15T10:38:27.880Z,21.52
2018-03-15T10:40:56.413Z,16.87
2018-03-15T10:43:25.797Z,17.17
2018-03-15T10:45:54.901Z,18.10
2018-03-15T10:48:24.189Z,23.38
2018-03-15T10:50:52.901Z,20.30
2018-03-15T10:53:23.044Z,19.58
2018-03-15T10:55:52.010Z,19.35
2018-03-15T10:58:20.738Z,17.05
2018-03-15T11:00:55.031Z,19.37
2018-03-15T11:03:28.797Z,15.52
2018-03-15T11:06:02.775Z,16.30
2018-03-15T11:08:36.465Z,15.27
2018-03-15T11:11:05.964Z,23.95
2018-03-15T11:13:35.128Z,16.00
2018-03-15T11:16:03.926Z,18.27
2018-03-15T11:18:32.509Z,15.18
2018-03-15T11:21:01.341Z,15.13
2018-03-15T11:23:31.031Z,17.77
2018-03-15T11:26:00.001Z,16.37
2018-03-15T11:28:29.485Z,14.52
2018-03-15T11:30:58.667Z,18.02
2018-03-15T11:33:28.000Z,16.10
2018-03-15T11:35:57.641Z,22.08
2018-03-15T11:38:26.759Z,17.50
2018-03-15T11:40:55.855Z,21.35
2018-03-15T11:43:25.203Z,18.48
2018-03-15T11:45:54.124Z,16.83
2018-03-15T11:48:22.932Z,14.65
2018-03-15T11:50:55.650Z,16.37
2018-03-15T11:53:25.831Z,14.13
2018-03-15T11:55:55.715Z,22.70
2018-03-15T11:58:24.545Z,17.08
2018-03-15T12:00:55.844Z,19.20
2018-03-15T12:03:26.438Z,16.33
2018-03-15T12:05:55.597Z,26.30
2018-03-15T12:08:24.090Z,17.10
2018-03-15T12:10:52.674Z,20.03
2018-03-15T12:13:22.193Z,16.20
2018-03-15T12:15:52.124Z,16.07
2018-03-15T12:18:21.796Z,16.70
2018-03-15T12:20:51.050Z,21.17
2018-03-15T12:23:18.666Z,16.23
2018-03-15T12:25:46.318Z,16.20
2018-03-15T12:28:14.900Z,18.67
2018-03-15T12:30:42.483Z,32.00
2018-03-15T12:33:10.101Z,14.20
2018-03-15T12:35:37.750Z,17.43
2018-03-15T12:38:05.350Z,17.17
2018-03-15T12:40:32.930Z,15.40
2018-03-15T12:43:00.569Z,15.17
2018-03-15T12:45:28.234Z,16.73
2018-03-15T12:47:55.863Z,22.47
2018-03-15T12:50:24.937Z,18.80
2018-03-15T12:52:54.011Z,17.80
2018-03-15T12:55:23.263Z,15.90
2018-03-15T12:57:50.967Z,18.43
2018-03-15T13:00:18.607Z,15.10
2018-03-15T13:02:46.172Z,16.17
2018-03-15T13:05:13.823Z,15.60
2018-03-15T13:07:41.448Z,14.10
2018-03-15T13:10:10.742Z,15.10
2018-03-15T13:12:40.205Z,15.97
2018-03-15T13:15:09.202Z,17.63
2018-03-15T13:17:38.769Z,19.80
2018-03-15T13:20:07.010Z,23.00
2018-03-15T13:22:36.026Z,20.13
2018-03-15T13:25:06.352Z,24.07
2018-03-15T13:27:36.446Z,19.07
2018-03-15T13:30:06.451Z,19.65
2018-03-15T13:32:34.656Z,17.10
2018-03-15T13:35:04.499Z,17.17
2018-03-15T13:37:32.706Z,20.00
2018-03-15T13:40:01.561Z,25.80
2018-03-15T13:42:30.137Z,20.35
2018-03-15T13:45:00.137Z,20.42
2018-03-15T13:47:29.753Z,20.77
2018-03-15T13:49:58.458Z,17.45
2018-03-15T13:52:27.343Z,16.90
2018-03-15T13:54:57.276Z,19.60
2018-03-15T13:57:27.053Z,20.92
2018-03-15T13:59:56.221Z,16.67
2018-03-15T14:02:24.696Z,18.52
2018-03-15T14:04:53.735Z,18.92
2018-03-15T14:07:28.046Z,19.37
2018-03-15T14:09:57.449Z,21.12
2018-03-15T14:12:27.503Z,18.85
2018-03-15T14:14:55.158Z,28.75
2018-03-15T14:17:23.142Z,20.65
2018-03-15T14:19:51.328Z,21.50
2018-03-15T14:22:19.260Z,21.87
2018-03-15T14:24:48.075Z,16.67
2018-03-15T14:27:17.126Z,24.83
2018-03-15T14:29:45.055Z,22.48
2018-03-15T14:32:12.937Z,15.68
2018-03-15T14:34:40.726Z,16.55
2018-03-15T14:37:09.166Z,20.80
2018-03-15T14:39:38.045Z,18.87
2018-03-15T14:42:05.768Z,20.62
2018-03-15T14:44:33.477Z,31.85
2018-03-15T14:47:02.160Z,22.08
2018-03-15T14:49:29.820Z,24.42
2018-03-15T14:51:57.584Z,19.45
2018-03-15T14:54:25.324Z,17.40
2018-03-15T14:56:53.924Z,18.23
2018-03-15T14:59:21.590Z,19.48
2018-03-15T15:01:49.350Z,13.45
2018-03-15T15:04:17.130Z,22.90
2018-03-15T15:06:44.769Z,16.27
2018-03-15T15:09:12.506Z,21.08
2018-03-15T15:11:41.067Z,18.62
2018-03-15T15:14:09.096Z,16.33
2018-03-15T15:16:36.686Z,15.80
2018-03-15T15:19:04.337Z,14.02
2018-03-15T15:21:31.972Z,16.33
2018-03-15T15:23:59.591Z,13.65
2018-03-15T15:26:27.215Z,18.37
2018-03-15T15:28:54.814Z,17.65
2018-03-15T15:31:22.446Z,10.57
2018-03-15T15:33:50.041Z,14.50
2018-03-15T15:36:18.205Z,21.20
2018-03-15T15:38:47.530Z,11.15
2018-03-15T15:41:15.543Z,12.98
2018-03-15T15:43:43.963Z,12.18
2018-03-15T15:46:12.109Z,14.55
2018-03-15T15:48:41.140Z,15.20
2018-03-15T15:51:08.887Z,12.98
2018-03-15T15:53:36.483Z,12.70
2018-03-15T15:56:04.311Z,14.20
2018-03-15T15:58:32.014Z,19.23
2018-03-15T16:01:00.736Z,14.45
2018-03-15T16:03:28.840Z,17.02
2018-03-15T16:05:56.671Z,13.15
2018-03-15T16:08:24.371Z,14.80
2018-03-15T16:10:52.111Z,12.05
2018-03-15T16:13:19.805Z,11.63
2018-03-15T16:15:47.564Z,14.85
2018-03-15T16:18:15.243Z,13.18
2018-03-15T16:20:42.982Z,13.88
2018-03-15T16:23:10.826Z,14.50
2018-03-15T16:25:38.554Z,12.05
2018-03-15T16:28:06.278Z,15.20
2018-03-15T16:30:40.522Z,10.90
2018-03-15T16:33:09.493Z,10.68
2018-03-15T16:35:37.235Z,12.52
2018-03-15T16:38:04.943Z,11.40
2018-03-15T16:40:33.119Z,15.18
2018-03-15T16:43:00.817Z,13.20
2018-03-15T16:45:28.513Z,18.75
2018-03-15T16:47:56.311Z,17.27
2018-03-15T16:50:24.027Z,16.73
2018-03-15T16:52:51.754Z,13.70
2018-03-15T16:55:20.256Z,19.52
2018-03-15T16:57:48.024Z,13.38
2018-03-15T17:00:15.617Z,10.02
2018-03-15T17:02:43.308Z,14.00
2018-03-15T17:05:11.835Z,15.68
2018-03-15T17:07:39.618Z,10.65
2018-03-15T17:10:08.107Z,10.45
2018-03-15T17:12:35.819Z,12.27
2018-03-15T17:15:04.410Z,17.80
2018-03-15T17:17:32.209Z,9.90
2018-03-15T17:19:59.842Z,12.95
2018-03-15T17:22:28.367Z,10.98
2018-03-15T17:24:56.006Z,11.02
2018-03-15T17:27:23.691Z,11.40
2018-03-15T17:29:51.519Z,11.52
2018-03-15T17:32:19.310Z,11.55
2018-03-15T17:34:46.978Z,7.05
2018-03-15T17:37:14.747Z,15.40
2018-03-15T17:39:42.455Z,8.68
2018-03-15T17:42:11.090Z,8.30
2018-03-15T17:44:38.872Z,12.57
2018-03-15T17:47:06.741Z,11.25
2018-03-15T17:49:35.201Z,12.98
2018-03-15T17:52:02.892Z,7.87
2018-03-15T17:54:30.486Z,18.05
2018-03-15T17:56:58.878Z,10.43
2018-03-15T17:59:28.205Z,9.80
2018-03-15T18:01:56.787Z,13.95
2018-03-15T18:04:24.449Z,12.90
2018-03-15T18:06:52.131Z,15.02
2018-03-15T18:09:19.868Z,14.15
2018-03-15T18:11:48.354Z,14.55
2018-03-15T18:14:16.029Z,8.50
2018-03-15T18:16:43.757Z,14.23
2018-03-15T18:19:11.537Z,16.33
2018-03-15T18:21:40.040Z,10.48
2018-03-15T18:24:07.704Z,12.73
2018-03-15T18:26:35.379Z,23.20
2018-03-15T18:29:03.042Z,21.42
2018-03-15T18:31:30.650Z,23.73
2018-03-15T18:33:59.048Z,18.33
2018-03-15T18:36:27.550Z,16.23
2018-03-15T18:38:55.172Z,16.08
2018-03-15T18:41:23.650Z,16.17
2018-03-15T18:43:51.351Z,20.95
2018-03-15T18:46:19.158Z,12.68
2018-03-15T18:48:46.898Z,17.60
2018-03-15T18:51:15.366Z,17.00
2018-03-15T18:53:43.242Z,20.75
2018-03-15T18:56:10.989Z,25.58
2018-03-15T18:58:38.676Z,22.10
2018-03-15T19:01:12.614Z,13.20
2018-03-15T19:03:35.783Z,11.40
2018-03-15T19:06:03.455Z,8.45
2018-03-15T19:08:31.872Z,7.18
2018-03-15T19:10:59.562Z,10.63
2018-03-15T19:13:27.187Z,11.43
2018-03-15T19:15:56.241Z,6.82
2018-03-15T19:18:23.890Z,7.40
2018-03-15T19:20:51.653Z,9.02
2018-03-15T19:23:19.499Z,9.02
2018-03-15T19:25:47.297Z,7.80
2018-03-15T19:28:14.960Z,7.37
2018-03-15T19:30:42.633Z,10.00
2018-03-15T19:33:10.289Z,9.40
2018-03-15T19:35:38.045Z,8.18
2018-03-15T19:38:05.672Z,14.75
2018-03-15T19:40:33.628Z,10.02
2018-03-15T19:43:01.670Z,12.25
2018-03-15T19:45:29.308Z,12.93
2018-03-15T19:47:57.027Z,9.30
2018-03-15T19:50:24.681Z,8.43
2018-03-15T19:52:53.090Z,9.52
2018-03-15T19:55:20.993Z,7.28
2018-03-15T19:57:48.647Z,8.00
2018-03-15T20:00:16.328Z,9.05
2018-03-15T20:02:44.185Z,7.95
2018-03-15T20:05:11.820Z,11.32
2018-03-15T20:07:39.418Z,15.95
2018-03-15T20:10:07.010Z,12.57
2018-03-15T20:12:34.626Z,10.90
2018-03-15T20:15:02.271Z,12.85
2018-03-15T20:17:29.911Z,12.10
2018-03-15T20:19:57.497Z,13.85
2018-03-15T20:22:30.802Z,11.82
2018-03-15T20:24:58.409Z,16.12
2018-03-15T20:27:31.595Z,19.25
2018-03-15T20:29:59.980Z,17.83
2018-03-15T20:32:34.111Z,16.05
2018-03-15T20:35:01.721Z,17.60
2018-03-15T20:37:29.355Z,16.30
2018-03-15T20:40:02.583Z,19.73
2018-03-15T20:42:30.982Z,20.00
2018-03-15T20:44:59.386Z,23.20
2018-03-15T20:47:32.672Z,21.62
2018-03-15T20:50:00.290Z,19.77
2018-03-15T20:52:27.924Z,22.85
2018-03-15T20:54:56.270Z,23.80
2018-03-15T20:57:24.658Z,27.13
2018-03-15T20:59:52.276Z,22.85
2018-03-15T21:02:21.958Z,24.30
2018-03-15T21:04:49.586Z,23.92
2018-03-15T21:07:17.210Z,34.92
2018-03-15T21:09:44.783Z,28.42
2018-03-15T21:12:12.407Z,24.63
2018-03-15T21:14:40.003Z,25.37
2018-03-15T21:17:07.592Z,21.25
2018-03-15T21:19:35.210Z,26.10
2018-03-15T21:22:02.796Z,20.60
2018-03-15T21:24:31.191Z,24.75
2018-03-15T21:26:58.855Z,20.62
2018-03-15T21:29:26.448Z,20.30
2018-03-15T21:31:54.022Z,22.30
2018-03-15T21:34:21.655Z,20.45
2018-03-15T21:36:49.232Z,22.02
2018-03-15T21:39:16.820Z,24.37
2018-03-15T21:41:44.443Z,16.50
2018-03-15T21:44:12.043Z,19.98
2018-03-15T21:46:39.622Z,16.20
2018-03-15T21:49:07.248Z,17.52
2018-03-15T21:51:34.842Z,15.95
2018-03-15T21:54:02.451Z,17.70
2018-03-15T21:56:30.047Z,15.10
2018-03-15T21:58:57.673Z,14.48
2018-03-15T22:01:25.330Z,17.25
2018-03-15T22:03:52.954Z,16.92
2018-03-15T22:06:20.520Z,12.52
2018-03-15T22:08:48.923Z,12.07
2018-03-15T22:11:16.525Z,14.73
2018-03-15T22:13:44.091Z,10.88
2018-03-15T22:16:11.721Z,11.70
2018-03-15T22:18:39.358Z,10.82
2018-03-15T22:21:07.691Z,9.63
2018-03-15T22:23:35.299Z,10.13
2018-03-15T22:26:03.711Z,13.38
2018-03-15T22:28:31.282Z,11.85
2018-03-15T22:30:58.860Z,15.63
2018-03-15T22:33:26.461Z,14.55
2018-03-15T22:35:54.022Z,16.42
2018-03-15T22:38:22.411Z,14.13
2018-03-15T22:40:50.018Z,11.25
2018-03-15T22:43:17.648Z,23.60
2018-03-15T22:45:45.278Z,17.27
2018-03-15T22:48:13.618Z,15.00
2018-03-15T22:50:41.262Z,17.33
2018-03-15T22:53:08.831Z,16.50
2018-03-15T22:55:36.527Z,21.90
2018-03-15T22:58:04.143Z,23.87
2018-03-15T23:00:31.717Z,18.92
2018-03-15T23:02:59.339Z,17.08
2018-03-15T23:05:26.927Z,19.08
2018-03-15T23:07:54.566Z,23.27
2018-03-15T23:10:22.161Z,21.20
2018-03-15T23:12:49.752Z,25.05
2018-03-15T23:15:17.371Z,25.48
2018-03-15T23:17:44.953Z,22.02
2018-03-15T23:20:12.612Z,21.12
2018-03-15T23:22:40.243Z,22.37
2018-03-15T23:25:07.825Z,23.83
2018-03-15T23:27:35.406Z,25.88
2018-03-15T23:30:03.093Z,22.10
2018-03-15T23:32:30.627Z,26.70
2018-03-15T23:34:58.351Z,26.77
2018-03-15T23:37:25.958Z,23.20
2018-03-15T23:39:53.531Z,23.75
2018-03-15T23:42:21.299Z,24.67
2018-03-15T23:44:48.919Z,28.98
2018-03-15T23:47:16.521Z,32.88
2018-03-15T23:49:44.868Z,28.87
2018-03-15T23:52:12.482Z,26.40
2018-03-15T23:54:40.864Z,26.20
2018-03-15T23:57:08.448Z,28.38
2018-03-15T23:59:36.023Z,22.92
